Boston Corner, Indiana
Current Conditions -  °F | °C
As of 6:54 AM on Monday 26 Jan 2015 (Local Time) from KFWA Reporting Station
Scattered Clouds Scattered Clouds  
Wind Chill: -2°   Ceiling: Unl
Heat Index:   Visibility: 10mi
Dew Point:   Wind: 6mph
Humidity: 83%   Direction: 330°NNW
Pressure: 29.92"   Gusts: NA
Location:  40.9863°N, 84.8797°W
Report Text: KFWA 261154Z 33005KT 10SM FEW030 FEW180 SCT240 M13/M16 A2992 RMK AO2 SLP146 4/002 60000 70017 T11331156 11067 21139 55001 $
Loading
Personal Weather Stations






























Interactive Weather Map New forecast layout! Learn more

10-Day Weather Forecast

Advertisements
Track Severe Weather on mobile